sensor_id;sensor_type;location;lat;lon;timestamp;temperature;humidity
81842;DHT22;71284;50.918;7.092;2023-11-19T00:00:34;13.00;68.10
81842;DHT22;71284;50.918;7.092;2023-11-19T00:03:01;13.10;68.20
81842;DHT22;71284;50.918;7.092;2023-11-19T00:05:28;13.20;67.60
81842;DHT22;71284;50.918;7.092;2023-11-19T00:07:54;13.30;67.60
81842;DHT22;71284;50.918;7.092;2023-11-19T00:10:21;13.30;67.40
81842;DHT22;71284;50.918;7.092;2023-11-19T00:12:48;13.10;68.40
81842;DHT22;71284;50.918;7.092;2023-11-19T00:15:15;13.00;68.70
81842;DHT22;71284;50.918;7.092;2023-11-19T00:17:41;13.00;68.90
81842;DHT22;71284;50.918;7.092;2023-11-19T00:20:08;13.10;68.90
81842;DHT22;71284;50.918;7.092;2023-11-19T00:22:35;13.10;68.60
81842;DHT22;71284;50.918;7.092;2023-11-19T00:25:01;13.20;68.30
81842;DHT22;71284;50.918;7.092;2023-11-19T00:27:28;13.20;68.80
81842;DHT22;71284;50.918;7.092;2023-11-19T00:29:54;13.30;68.30
81842;DHT22;71284;50.918;7.092;2023-11-19T00:32:21;13.30;68.70
81842;DHT22;71284;50.918;7.092;2023-11-19T00:34:48;13.30;68.20
81842;DHT22;71284;50.918;7.092;2023-11-19T00:37:14;13.50;67.90
81842;DHT22;71284;50.918;7.092;2023-11-19T00:39:41;13.50;67.90
81842;DHT22;71284;50.918;7.092;2023-11-19T00:42:07;13.40;68.40
81842;DHT22;71284;50.918;7.092;2023-11-19T00:44:34;13.50;68.30
81842;DHT22;71284;50.918;7.092;2023-11-19T00:47:01;13.60;67.80
81842;DHT22;71284;50.918;7.092;2023-11-19T00:49:27;13.60;67.50
81842;DHT22;71284;50.918;7.092;2023-11-19T00:51:54;13.70;67.50
81842;DHT22;71284;50.918;7.092;2023-11-19T00:54:20;13.70;67.40
81842;DHT22;71284;50.918;7.092;2023-11-19T00:56:47;13.70;67.20
81842;DHT22;71284;50.918;7.092;2023-11-19T00:59:13;13.70;67.60
81842;DHT22;71284;50.918;7.092;2023-11-19T01:01:40;13.60;67.80
81842;DHT22;71284;50.918;7.092;2023-11-19T01:04:07;13.60;68.00
81842;DHT22;71284;50.918;7.092;2023-11-19T01:06:33;13.70;67.60
81842;DHT22;71284;50.918;7.092;2023-11-19T01:09:00;13.80;67.40
81842;DHT22;71284;50.918;7.092;2023-11-19T01:11:26;13.90;67.10
81842;DHT22;71284;50.918;7.092;2023-11-19T01:13:53;13.90;67.40
81842;DHT22;71284;50.918;7.092;2023-11-19T01:16:20;13.90;67.20
81842;DHT22;71284;50.918;7.092;2023-11-19T01:18:47;13.90;67.20
81842;DHT22;71284;50.918;7.092;2023-11-19T01:21:14;13.90;67.30
81842;DHT22;71284;50.918;7.092;2023-11-19T01:23:41;13.90;67.20
81842;DHT22;71284;50.918;7.092;2023-11-19T01:26:10;13.90;67.70
81842;DHT22;71284;50.918;7.092;2023-11-19T01:28:37;14.00;67.40
81842;DHT22;71284;50.918;7.092;2023-11-19T01:31:04;14.00;67.30
81842;DHT22;71284;50.918;7.092;2023-11-19T01:33:30;14.00;67.80
81842;DHT22;71284;50.918;7.092;2023-11-19T01:38:29;14.10;67.50
81842;DHT22;71284;50.918;7.092;2023-11-19T01:40:56;14.10;67.20
81842;DHT22;71284;50.918;7.092;2023-11-19T01:43:32;14.00;67.60
81842;DHT22;71284;50.918;7.092;2023-11-19T01:45:58;14.20;67.40
81842;DHT22;71284;50.918;7.092;2023-11-19T01:48:25;14.20;67.10
81842;DHT22;71284;50.918;7.092;2023-11-19T01:50:51;14.30;67.10
81842;DHT22;71284;50.918;7.092;2023-11-19T01:53:18;14.30;67.30
81842;DHT22;71284;50.918;7.092;2023-11-19T01:55:46;14.30;67.30
81842;DHT22;71284;50.918;7.092;2023-11-19T01:58:11;14.30;67.40
81842;DHT22;71284;50.918;7.092;2023-11-19T02:00:38;14.30;68.10
81842;DHT22;71284;50.918;7.092;2023-11-19T02:03:05;14.30;67.40
81842;DHT22;71284;50.918;7.092;2023-11-19T02:05:31;14.40;67.40
81842;DHT22;71284;50.918;7.092;2023-11-19T02:07:57;14.40;67.40
81842;DHT22;71284;50.918;7.092;2023-11-19T02:10:24;14.40;67.50
81842;DHT22;71284;50.918;7.092;2023-11-19T02:12:50;14.40;68.70
81842;DHT22;71284;50.918;7.092;2023-11-19T02:15:17;14.50;67.40
81842;DHT22;71284;50.918;7.092;2023-11-19T02:17:44;14.60;67.40
81842;DHT22;71284;50.918;7.092;2023-11-19T02:20:11;14.60;67.30
81842;DHT22;71284;50.918;7.092;2023-11-19T02:22:37;14.60;67.20
81842;DHT22;71284;50.918;7.092;2023-11-19T02:25:07;14.60;67.10
81842;DHT22;71284;50.918;7.092;2023-11-19T02:27:47;14.60;67.40
81842;DHT22;71284;50.918;7.092;2023-11-19T02:30:15;14.60;67.30
81842;DHT22;71284;50.918;7.092;2023-11-19T02:32:42;14.70;67.20
81842;DHT22;71284;50.918;7.092;2023-11-19T02:35:08;14.60;67.70
81842;DHT22;71284;50.918;7.092;2023-11-19T02:37:35;14.40;69.00
81842;DHT22;71284;50.918;7.092;2023-11-19T02:40:01;14.30;69.10
81842;DHT22;71284;50.918;7.092;2023-11-19T02:42:28;14.50;68.70
81842;DHT22;71284;50.918;7.092;2023-11-19T02:44:54;14.60;68.00
81842;DHT22;71284;50.918;7.092;2023-11-19T02:47:21;14.60;67.80
81842;DHT22;71284;50.918;7.092;2023-11-19T02:49:47;14.70;67.90
81842;DHT22;71284;50.918;7.092;2023-11-19T02:52:14;14.70;67.70
81842;DHT22;71284;50.918;7.092;2023-11-19T02:54:42;14.70;67.80
81842;DHT22;71284;50.918;7.092;2023-11-19T02:57:07;14.60;68.30
81842;DHT22;71284;50.918;7.092;2023-11-19T02:59:35;14.70;68.30
81842;DHT22;71284;50.918;7.092;2023-11-19T03:02:00;14.60;69.20
81842;DHT22;71284;50.918;7.092;2023-11-19T03:04:27;14.70;68.20
81842;DHT22;71284;50.918;7.092;2023-11-19T03:06:54;14.80;68.10
81842;DHT22;71284;50.918;7.092;2023-11-19T03:09:20;14.80;67.60
81842;DHT22;71284;50.918;7.092;2023-11-19T03:11:47;14.70;68.30
81842;DHT22;71284;50.918;7.092;2023-11-19T03:14:13;14.80;68.20
81842;DHT22;71284;50.918;7.092;2023-11-19T03:16:40;14.80;67.60
81842;DHT22;71284;50.918;7.092;2023-11-19T03:19:07;14.90;67.50
81842;DHT22;71284;50.918;7.092;2023-11-19T03:21:33;14.90;67.80
81842;DHT22;71284;50.918;7.092;2023-11-19T03:24:00;14.90;67.70
81842;DHT22;71284;50.918;7.092;2023-11-19T03:26:27;15.00;67.40
81842;DHT22;71284;50.918;7.092;2023-11-19T03:28:53;15.00;67.10
81842;DHT22;71284;50.918;7.092;2023-11-19T03:31:20;15.10;67.20
81842;DHT22;71284;50.918;7.092;2023-11-19T03:33:46;15.00;67.30
81842;DHT22;71284;50.918;7.092;2023-11-19T03:36:13;15.10;67.10
81842;DHT22;71284;50.918;7.092;2023-11-19T03:38:39;15.10;67.10
81842;DHT22;71284;50.918;7.092;2023-11-19T03:41:11;15.10;66.90
81842;DHT22;71284;50.918;7.092;2023-11-19T03:43:37;15.20;66.70
81842;DHT22;71284;50.918;7.092;2023-11-19T03:46:04;15.20;66.40
81842;DHT22;71284;50.918;7.092;2023-11-19T03:48:31;15.20;66.60
81842;DHT22;71284;50.918;7.092;2023-11-19T03:50:57;15.20;66.70
81842;DHT22;71284;50.918;7.092;2023-11-19T03:53:24;15.10;66.80
81842;DHT22;71284;50.918;7.092;2023-11-19T03:55:50;15.00;67.10
81842;DHT22;71284;50.918;7.092;2023-11-19T03:58:17;15.00;67.10
81842;DHT22;71284;50.918;7.092;2023-11-19T04:00:43;15.10;67.10
81842;DHT22;71284;50.918;7.092;2023-11-19T04:03:10;15.10;66.80
81842;DHT22;71284;50.918;7.092;2023-11-19T04:05:37;15.20;66.60
81842;DHT22;71284;50.918;7.092;2023-11-19T04:08:03;15.20;66.40
81842;DHT22;71284;50.918;7.092;2023-11-19T04:10:30;15.20;66.30
81842;DHT22;71284;50.918;7.092;2023-11-19T04:12:56;15.20;67.20
81842;DHT22;71284;50.918;7.092;2023-11-19T04:15:23;15.10;66.90
81842;DHT22;71284;50.918;7.092;2023-11-19T04:17:50;15.10;66.80
81842;DHT22;71284;50.918;7.092;2023-11-19T04:20:16;15.10;66.90
81842;DHT22;71284;50.918;7.092;2023-11-19T04:22:43;15.10;66.90
81842;DHT22;71284;50.918;7.092;2023-11-19T04:25:09;15.20;66.70
81842;DHT22;71284;50.918;7.092;2023-11-19T04:27:36;15.30;66.40
81842;DHT22;71284;50.918;7.092;2023-11-19T04:30:03;15.40;66.20
81842;DHT22;71284;50.918;7.092;2023-11-19T04:32:29;15.40;66.40
81842;DHT22;71284;50.918;7.092;2023-11-19T04:34:56;15.40;66.20
81842;DHT22;71284;50.918;7.092;2023-11-19T04:37:23;15.40;66.40
81842;DHT22;71284;50.918;7.092;2023-11-19T04:39:49;15.30;66.30
81842;DHT22;71284;50.918;7.092;2023-11-19T04:42:16;15.40;66.00
81842;DHT22;71284;50.918;7.092;2023-11-19T04:44:43;15.40;66.10
81842;DHT22;71284;50.918;7.092;2023-11-19T04:47:09;15.40;65.60
81842;DHT22;71284;50.918;7.092;2023-11-19T04:49:39;15.50;65.40
81842;DHT22;71284;50.918;7.092;2023-11-19T04:52:02;15.70;65.20
81842;DHT22;71284;50.918;7.092;2023-11-19T04:54:29;15.60;65.50
81842;DHT22;71284;50.918;7.092;2023-11-19T04:56:55;15.70;64.60
81842;DHT22;71284;50.918;7.092;2023-11-19T04:59:22;15.70;64.60
81842;DHT22;71284;50.918;7.092;2023-11-19T05:01:49;15.80;64.00
81842;DHT22;71284;50.918;7.092;2023-11-19T05:04:15;15.80;64.30
81842;DHT22;71284;50.918;7.092;2023-11-19T05:06:42;15.70;64.70
81842;DHT22;71284;50.918;7.092;2023-11-19T05:09:08;15.80;64.70
81842;DHT22;71284;50.918;7.092;2023-11-19T05:11:35;15.80;64.70
81842;DHT22;71284;50.918;7.092;2023-11-19T05:14:02;15.80;64.30
81842;DHT22;71284;50.918;7.092;2023-11-19T05:16:31;15.80;65.30
81842;DHT22;71284;50.918;7.092;2023-11-19T05:18:58;15.60;65.00
81842;DHT22;71284;50.918;7.092;2023-11-19T05:21:24;15.40;65.30
81842;DHT22;71284;50.918;7.092;2023-11-19T05:23:51;15.30;66.20
81842;DHT22;71284;50.918;7.092;2023-11-19T05:26:19;15.30;65.80
81842;DHT22;71284;50.918;7.092;2023-11-19T05:28:45;15.30;65.60
81842;DHT22;71284;50.918;7.092;2023-11-19T05:31:12;15.30;65.30
81842;DHT22;71284;50.918;7.092;2023-11-19T05:33:38;15.20;64.60
81842;DHT22;71284;50.918;7.092;2023-11-19T05:36:05;15.30;65.00
81842;DHT22;71284;50.918;7.092;2023-11-19T05:38:33;15.20;64.30
81842;DHT22;71284;50.918;7.092;2023-11-19T05:40:59;15.20;64.60
81842;DHT22;71284;50.918;7.092;2023-11-19T05:43:26;15.10;64.70
81842;DHT22;71284;50.918;7.092;2023-11-19T05:45:52;15.20;64.60
81842;DHT22;71284;50.918;7.092;2023-11-19T05:48:19;15.20;64.40
81842;DHT22;71284;50.918;7.092;2023-11-19T05:50:46;15.00;63.30
81842;DHT22;71284;50.918;7.092;2023-11-19T05:53:12;15.00;64.60
81842;DHT22;71284;50.918;7.092;2023-11-19T05:55:39;15.00;64.60
81842;DHT22;71284;50.918;7.092;2023-11-19T05:58:06;14.90;64.40
81842;DHT22;71284;50.918;7.092;2023-11-19T06:00:33;14.90;63.90
81842;DHT22;71284;50.918;7.092;2023-11-19T06:02:59;14.80;63.30
81842;DHT22;71284;50.918;7.092;2023-11-19T06:05:26;14.70;63.50
81842;DHT22;71284;50.918;7.092;2023-11-19T06:07:53;14.80;62.50
81842;DHT22;71284;50.918;7.092;2023-11-19T06:10:19;14.80;63.30
81842;DHT22;71284;50.918;7.092;2023-11-19T06:12:46;14.80;63.80
81842;DHT22;71284;50.918;7.092;2023-11-19T06:15:12;14.80;63.20
81842;DHT22;71284;50.918;7.092;2023-11-19T06:17:39;14.70;63.20
81842;DHT22;71284;50.918;7.092;2023-11-19T06:20:06;14.70;63.10
81842;DHT22;71284;50.918;7.092;2023-11-19T06:22:33;14.50;64.60
81842;DHT22;71284;50.918;7.092;2023-11-19T06:24:59;14.70;63.50
81842;DHT22;71284;50.918;7.092;2023-11-19T06:27:26;14.60;62.50
81842;DHT22;71284;50.918;7.092;2023-11-19T06:29:52;14.60;61.60
81842;DHT22;71284;50.918;7.092;2023-11-19T06:32:19;14.60;62.40
81842;DHT22;71284;50.918;7.092;2023-11-19T06:34:46;14.60;62.20
81842;DHT22;71284;50.918;7.092;2023-11-19T06:37:12;14.60;62.50
81842;DHT22;71284;50.918;7.092;2023-11-19T06:39:39;14.70;63.50
81842;DHT22;71284;50.918;7.092;2023-11-19T06:42:05;14.80;62.90
81842;DHT22;71284;50.918;7.092;2023-11-19T06:44:32;14.80;61.60
81842;DHT22;71284;50.918;7.092;2023-11-19T06:46:58;14.90;62.30
81842;DHT22;71284;50.918;7.092;2023-11-19T06:49:25;14.90;62.00
81842;DHT22;71284;50.918;7.092;2023-11-19T06:51:52;15.00;61.40
81842;DHT22;71284;50.918;7.092;2023-11-19T06:54:18;15.00;61.20
81842;DHT22;71284;50.918;7.092;2023-11-19T06:56:45;14.70;61.00
81842;DHT22;71284;50.918;7.092;2023-11-19T06:59:11;14.80;61.90
81842;DHT22;71284;50.918;7.092;2023-11-19T07:01:38;15.00;61.60
81842;DHT22;71284;50.918;7.092;2023-11-19T07:04:05;15.00;60.90
81842;DHT22;71284;50.918;7.092;2023-11-19T07:06:31;15.00;60.90
81842;DHT22;71284;50.918;7.092;2023-11-19T07:08:58;14.90;60.90
81842;DHT22;71284;50.918;7.092;2023-11-19T07:11:24;14.90;62.10
81842;DHT22;71284;50.918;7.092;2023-11-19T07:13:51;14.90;60.70
81842;DHT22;71284;50.918;7.092;2023-11-19T07:16:18;14.90;61.20
81842;DHT22;71284;50.918;7.092;2023-11-19T07:18:44;15.00;60.00
81842;DHT22;71284;50.918;7.092;2023-11-19T07:21:11;15.00;60.80
81842;DHT22;71284;50.918;7.092;2023-11-19T07:23:37;15.00;61.40
81842;DHT22;71284;50.918;7.092;2023-11-19T07:26:05;14.90;61.80
81842;DHT22;71284;50.918;7.092;2023-11-19T07:28:32;14.80;60.90
81842;DHT22;71284;50.918;7.092;2023-11-19T07:30:58;14.80;61.00
81842;DHT22;71284;50.918;7.092;2023-11-19T07:33:25;14.80;61.60
81842;DHT22;71284;50.918;7.092;2023-11-19T07:35:52;14.70;62.10
81842;DHT22;71284;50.918;7.092;2023-11-19T07:38:18;14.70;62.10
81842;DHT22;71284;50.918;7.092;2023-11-19T07:40:45;14.60;62.20
81842;DHT22;71284;50.918;7.092;2023-11-19T07:43:11;14.60;62.20
81842;DHT22;71284;50.918;7.092;2023-11-19T07:45:38;14.60;62.30
81842;DHT22;71284;50.918;7.092;2023-11-19T07:48:05;14.60;61.40
81842;DHT22;71284;50.918;7.092;2023-11-19T07:50:31;14.50;62.20
81842;DHT22;71284;50.918;7.092;2023-11-19T07:52:58;14.40;62.20
81842;DHT22;71284;50.918;7.092;2023-11-19T07:55:24;14.40;61.00
81842;DHT22;71284;50.918;7.092;2023-11-19T07:57:51;14.60;61.60
81842;DHT22;71284;50.918;7.092;2023-11-19T08:00:18;14.70;60.80
81842;DHT22;71284;50.918;7.092;2023-11-19T08:02:44;14.80;60.80
81842;DHT22;71284;50.918;7.092;2023-11-19T08:05:11;14.70;60.00
81842;DHT22;71284;50.918;7.092;2023-11-19T08:07:37;14.90;60.20
81842;DHT22;71284;50.918;7.092;2023-11-19T08:10:04;14.90;60.30
81842;DHT22;71284;50.918;7.092;2023-11-19T08:12:31;14.80;60.30
81842;DHT22;71284;50.918;7.092;2023-11-19T08:14:57;14.90;60.50
81842;DHT22;71284;50.918;7.092;2023-11-19T08:17:24;14.90;59.80
81842;DHT22;71284;50.918;7.092;2023-11-19T08:19:51;14.70;60.30
81842;DHT22;71284;50.918;7.092;2023-11-19T08:22:17;14.80;60.10
81842;DHT22;71284;50.918;7.092;2023-11-19T08:24:44;14.80;59.70
81842;DHT22;71284;50.918;7.092;2023-11-19T08:27:10;14.80;59.30
81842;DHT22;71284;50.918;7.092;2023-11-19T08:29:37;14.80;59.80
81842;DHT22;71284;50.918;7.092;2023-11-19T08:32:04;14.90;60.80
81842;DHT22;71284;50.918;7.092;2023-11-19T08:34:31;14.90;60.20
81842;DHT22;71284;50.918;7.092;2023-11-19T08:36:57;15.10;60.70
81842;DHT22;71284;50.918;7.092;2023-11-19T08:39:24;15.20;59.90
81842;DHT22;71284;50.918;7.092;2023-11-19T08:41:50;15.20;60.30
81842;DHT22;71284;50.918;7.092;2023-11-19T08:44:17;15.40;58.90
81842;DHT22;71284;50.918;7.092;2023-11-19T08:46:49;15.40;58.20
81842;DHT22;71284;50.918;7.092;2023-11-19T08:49:15;15.40;58.40
81842;DHT22;71284;50.918;7.092;2023-11-19T08:51:42;15.50;58.20
81842;DHT22;71284;50.918;7.092;2023-11-19T08:54:08;15.70;58.00
81842;DHT22;71284;50.918;7.092;2023-11-19T08:56:35;15.50;58.00
81842;DHT22;71284;50.918;7.092;2023-11-19T08:59:01;15.50;57.90
81842;DHT22;71284;50.918;7.092;2023-11-19T09:01:28;15.70;57.30
81842;DHT22;71284;50.918;7.092;2023-11-19T09:03:55;15.60;56.60
81842;DHT22;71284;50.918;7.092;2023-11-19T09:06:21;15.80;56.20
81842;DHT22;71284;50.918;7.092;2023-11-19T09:08:48;16.00;56.00
81842;DHT22;71284;50.918;7.092;2023-11-19T09:11:15;16.10;55.10
81842;DHT22;71284;50.918;7.092;2023-11-19T09:13:41;16.40;54.30
81842;DHT22;71284;50.918;7.092;2023-11-19T09:16:08;16.50;54.30
81842;DHT22;71284;50.918;7.092;2023-11-19T09:18:34;16.20;54.10
81842;DHT22;71284;50.918;7.092;2023-11-19T09:21:01;15.80;55.40
81842;DHT22;71284;50.918;7.092;2023-11-19T09:23:27;15.70;56.30
81842;DHT22;71284;50.918;7.092;2023-11-19T09:25:54;15.70;55.60
81842;DHT22;71284;50.918;7.092;2023-11-19T09:28:20;15.50;56.00
81842;DHT22;71284;50.918;7.092;2023-11-19T09:30:47;15.80;55.10
81842;DHT22;71284;50.918;7.092;2023-11-19T09:33:14;15.90;54.60
81842;DHT22;71284;50.918;7.092;2023-11-19T09:35:40;16.20;54.60
81842;DHT22;71284;50.918;7.092;2023-11-19T09:38:07;16.20;54.00
81842;DHT22;71284;50.918;7.092;2023-11-19T09:40:33;16.10;53.70
81842;DHT22;71284;50.918;7.092;2023-11-19T09:43:00;16.10;53.50
81842;DHT22;71284;50.918;7.092;2023-11-19T09:45:27;16.00;53.30
81842;DHT22;71284;50.918;7.092;2023-11-19T09:47:53;15.90;54.80
81842;DHT22;71284;50.918;7.092;2023-11-19T09:50:20;16.30;53.70
81842;DHT22;71284;50.918;7.092;2023-11-19T09:52:47;16.80;53.10
81842;DHT22;71284;50.918;7.092;2023-11-19T09:55:13;17.20;51.40
81842;DHT22;71284;50.918;7.092;2023-11-19T09:57:40;17.30;51.00
81842;DHT22;71284;50.918;7.092;2023-11-19T10:00:07;17.40;50.00
81842;DHT22;71284;50.918;7.092;2023-11-19T10:02:34;17.30;49.90
81842;DHT22;71284;50.918;7.092;2023-11-19T10:05:00;16.90;51.30
81842;DHT22;71284;50.918;7.092;2023-11-19T10:07:26;17.00;51.60
81842;DHT22;71284;50.918;7.092;2023-11-19T10:09:53;16.80;51.20
81842;DHT22;71284;50.918;7.092;2023-11-19T10:12:19;17.40;50.40
81842;DHT22;71284;50.918;7.092;2023-11-19T10:14:46;17.60;49.60
81842;DHT22;71284;50.918;7.092;2023-11-19T10:17:13;18.20;48.70
81842;DHT22;71284;50.918;7.092;2023-11-19T10:19:40;18.40;46.50
81842;DHT22;71284;50.918;7.092;2023-11-19T10:22:07;17.80;48.00
81842;DHT22;71284;50.918;7.092;2023-11-19T10:24:33;17.70;48.80
81842;DHT22;71284;50.918;7.092;2023-11-19T10:27:01;17.40;49.30
81842;DHT22;71284;50.918;7.092;2023-11-19T10:29:27;17.50;49.70
81842;DHT22;71284;50.918;7.092;2023-11-19T10:31:56;17.10;50.10
81842;DHT22;71284;50.918;7.092;2023-11-19T10:34:25;17.10;50.60
81842;DHT22;71284;50.918;7.092;2023-11-19T10:36:51;17.40;49.80
81842;DHT22;71284;50.918;7.092;2023-11-19T10:39:17;17.30;50.00
81842;DHT22;71284;50.918;7.092;2023-11-19T10:41:44;16.90;50.30
81842;DHT22;71284;50.918;7.092;2023-11-19T10:44:10;16.90;50.80
81842;DHT22;71284;50.918;7.092;2023-11-19T10:46:38;17.10;51.50
81842;DHT22;71284;50.918;7.092;2023-11-19T10:49:04;17.00;50.40
81842;DHT22;71284;50.918;7.092;2023-11-19T10:51:31;16.80;50.70
81842;DHT22;71284;50.918;7.092;2023-11-19T10:54:03;16.70;50.00
81842;DHT22;71284;50.918;7.092;2023-11-19T10:56:25;16.80;50.10
81842;DHT22;71284;50.918;7.092;2023-11-19T10:58:51;16.90;50.30
81842;DHT22;71284;50.918;7.092;2023-11-19T11:01:19;16.80;50.30
81842;DHT22;71284;50.918;7.092;2023-11-19T11:03:45;16.80;50.60
81842;DHT22;71284;50.918;7.092;2023-11-19T11:06:11;16.90;50.00
81842;DHT22;71284;50.918;7.092;2023-11-19T11:08:38;17.00;50.10
81842;DHT22;71284;50.918;7.092;2023-11-19T11:11:05;16.90;49.50
81842;DHT22;71284;50.918;7.092;2023-11-19T11:13:31;16.60;49.90
81842;DHT22;71284;50.918;7.092;2023-11-19T11:15:58;16.70;50.40
81842;DHT22;71284;50.918;7.092;2023-11-19T11:18:24;16.50;50.60
81842;DHT22;71284;50.918;7.092;2023-11-19T11:20:52;16.50;51.10
81842;DHT22;71284;50.918;7.092;2023-11-19T11:23:28;16.40;50.90
81842;DHT22;71284;50.918;7.092;2023-11-19T11:28:32;16.40;54.70
81842;DHT22;71284;50.918;7.092;2023-11-19T11:31:15;16.10;55.90
81842;DHT22;71284;50.918;7.092;2023-11-19T11:36:17;16.20;55.40
81842;DHT22;71284;50.918;7.092;2023-11-19T11:38:40;16.00;54.30
81842;DHT22;71284;50.918;7.092;2023-11-19T11:41:15;15.80;54.70
81842;DHT22;71284;50.918;7.092;2023-11-19T11:43:44;15.80;52.90
81842;DHT22;71284;50.918;7.092;2023-11-19T11:48:53;16.20;53.60
81842;DHT22;71284;50.918;7.092;2023-11-19T11:51:19;16.20;51.80
81842;DHT22;71284;50.918;7.092;2023-11-19T11:53:46;16.10;51.70
81842;DHT22;71284;50.918;7.092;2023-11-19T11:56:12;16.20;51.80
81842;DHT22;71284;50.918;7.092;2023-11-19T11:58:40;16.40;50.40
81842;DHT22;71284;50.918;7.092;2023-11-19T12:01:06;16.30;50.50
81842;DHT22;71284;50.918;7.092;2023-11-19T12:03:32;16.50;51.00
81842;DHT22;71284;50.918;7.092;2023-11-19T12:05:59;16.40;52.20
81842;DHT22;71284;50.918;7.092;2023-11-19T12:08:27;16.50;50.80
81842;DHT22;71284;50.918;7.092;2023-11-19T12:10:54;16.50;50.20
81842;DHT22;71284;50.918;7.092;2023-11-19T12:13:20;16.80;50.60
81842;DHT22;71284;50.918;7.092;2023-11-19T12:16:07;16.90;51.80
81842;DHT22;71284;50.918;7.092;2023-11-19T12:18:33;16.90;49.70
81842;DHT22;71284;50.918;7.092;2023-11-19T12:21:00;17.20;50.10
81842;DHT22;71284;50.918;7.092;2023-11-19T12:23:27;17.40;49.90
81842;DHT22;71284;50.918;7.092;2023-11-19T12:25:53;17.20;49.70
81842;DHT22;71284;50.918;7.092;2023-11-19T12:28:19;17.10;50.20
81842;DHT22;71284;50.918;7.092;2023-11-19T12:30:46;17.00;50.30
81842;DHT22;71284;50.918;7.092;2023-11-19T12:33:13;17.20;50.50
81842;DHT22;71284;50.918;7.092;2023-11-19T12:35:41;17.10;50.50
81842;DHT22;71284;50.918;7.092;2023-11-19T12:38:07;17.10;50.50
81842;DHT22;71284;50.918;7.092;2023-11-19T12:40:33;17.10;50.90
81842;DHT22;71284;50.918;7.092;2023-11-19T12:43:00;17.10;50.40
81842;DHT22;71284;50.918;7.092;2023-11-19T12:45:35;17.20;50.20
81842;DHT22;71284;50.918;7.092;2023-11-19T12:48:05;17.20;50.20
81842;DHT22;71284;50.918;7.092;2023-11-19T12:51:02;17.10;50.70
81842;DHT22;71284;50.918;7.092;2023-11-19T12:53:13;17.10;50.20
81842;DHT22;71284;50.918;7.092;2023-11-19T12:55:39;17.00;50.40
81842;DHT22;71284;50.918;7.092;2023-11-19T12:58:06;16.70;52.00
81842;DHT22;71284;50.918;7.092;2023-11-19T13:00:32;16.60;51.00
81842;DHT22;71284;50.918;7.092;2023-11-19T13:02:59;16.70;51.30
81842;DHT22;71284;50.918;7.092;2023-11-19T13:05:30;16.50;51.60
81842;DHT22;71284;50.918;7.092;2023-11-19T13:08:01;16.50;51.30
81842;DHT22;71284;50.918;7.092;2023-11-19T13:10:27;16.50;51.30
81842;DHT22;71284;50.918;7.092;2023-11-19T13:13:00;16.40;51.60
81842;DHT22;71284;50.918;7.092;2023-11-19T13:15:25;16.30;51.80
81842;DHT22;71284;50.918;7.092;2023-11-19T13:17:52;16.40;51.80
81842;DHT22;71284;50.918;7.092;2023-11-19T13:20:19;16.30;52.10
81842;DHT22;71284;50.918;7.092;2023-11-19T13:22:55;16.20;53.00
81842;DHT22;71284;50.918;7.092;2023-11-19T13:25:21;16.40;52.20
81842;DHT22;71284;50.918;7.092;2023-11-19T13:27:47;16.50;52.50
81842;DHT22;71284;50.918;7.092;2023-11-19T13:30:14;16.70;52.00
81842;DHT22;71284;50.918;7.092;2023-11-19T13:32:41;16.70;51.50
81842;DHT22;71284;50.918;7.092;2023-11-19T13:35:08;17.10;51.00
81842;DHT22;71284;50.918;7.092;2023-11-19T13:37:34;17.30;51.10
81842;DHT22;71284;50.918;7.092;2023-11-19T13:40:01;17.20;49.90
81842;DHT22;71284;50.918;7.092;2023-11-19T13:42:27;16.80;51.10
81842;DHT22;71284;50.918;7.092;2023-11-19T13:44:54;16.70;51.60
81842;DHT22;71284;50.918;7.092;2023-11-19T13:47:20;17.00;51.10
81842;DHT22;71284;50.918;7.092;2023-11-19T13:49:47;17.00;50.60
81842;DHT22;71284;50.918;7.092;2023-11-19T13:52:14;17.00;50.80
81842;DHT22;71284;50.918;7.092;2023-11-19T13:54:40;17.20;50.50
81842;DHT22;71284;50.918;7.092;2023-11-19T13:57:07;16.90;49.80
81842;DHT22;71284;50.918;7.092;2023-11-19T13:59:34;16.90;51.10
81842;DHT22;71284;50.918;7.092;2023-11-19T14:02:00;17.10;50.80
81842;DHT22;71284;50.918;7.092;2023-11-19T14:04:27;17.40;49.80
81842;DHT22;71284;50.918;7.092;2023-11-19T14:06:53;17.40;49.50
81842;DHT22;71284;50.918;7.092;2023-11-19T14:09:20;17.20;49.30
81842;DHT22;71284;50.918;7.092;2023-11-19T14:11:46;17.10;49.30
81842;DHT22;71284;50.918;7.092;2023-11-19T14:14:13;17.10;49.70
81842;DHT22;71284;50.918;7.092;2023-11-19T14:16:40;17.20;49.50
81842;DHT22;71284;50.918;7.092;2023-11-19T14:19:07;17.10;49.20
81842;DHT22;71284;50.918;7.092;2023-11-19T14:21:33;17.30;49.50
81842;DHT22;71284;50.918;7.092;2023-11-19T14:24:00;17.30;48.90
81842;DHT22;71284;50.918;7.092;2023-11-19T14:26:27;17.10;48.70
81842;DHT22;71284;50.918;7.092;2023-11-19T14:28:53;17.10;49.00
81842;DHT22;71284;50.918;7.092;2023-11-19T14:31:20;17.20;49.20
81842;DHT22;71284;50.918;7.092;2023-11-19T14:33:46;17.10;48.60
81842;DHT22;71284;50.918;7.092;2023-11-19T14:36:13;17.00;49.60
81842;DHT22;71284;50.918;7.092;2023-11-19T14:38:40;16.90;49.50
81842;DHT22;71284;50.918;7.092;2023-11-19T14:41:06;16.90;50.30
81842;DHT22;71284;50.918;7.092;2023-11-19T14:43:33;16.90;49.00
81842;DHT22;71284;50.918;7.092;2023-11-19T14:45:59;16.80;49.20
81842;DHT22;71284;50.918;7.092;2023-11-19T14:48:26;16.60;49.90
81842;DHT22;71284;50.918;7.092;2023-11-19T14:50:52;16.50;51.20
81842;DHT22;71284;50.918;7.092;2023-11-19T14:53:19;16.30;50.80
81842;DHT22;71284;50.918;7.092;2023-11-19T14:55:46;16.30;50.50
81842;DHT22;71284;50.918;7.092;2023-11-19T14:58:12;16.40;50.60
81842;DHT22;71284;50.918;7.092;2023-11-19T15:00:39;16.20;50.20
81842;DHT22;71284;50.918;7.092;2023-11-19T15:03:05;16.00;51.30
81842;DHT22;71284;50.918;7.092;2023-11-19T15:05:32;16.00;51.20
81842;DHT22;71284;50.918;7.092;2023-11-19T15:07:59;16.10;51.10
81842;DHT22;71284;50.918;7.092;2023-11-19T15:10:25;16.20;50.80
81842;DHT22;71284;50.918;7.092;2023-11-19T15:12:52;16.20;51.00
81842;DHT22;71284;50.918;7.092;2023-11-19T15:15:18;15.90;51.30
81842;DHT22;71284;50.918;7.092;2023-11-19T15:17:45;15.90;51.10
81842;DHT22;71284;50.918;7.092;2023-11-19T15:20:12;16.20;50.80
81842;DHT22;71284;50.918;7.092;2023-11-19T15:22:38;16.20;51.00
81842;DHT22;71284;50.918;7.092;2023-11-19T15:25:05;16.20;50.80
81842;DHT22;71284;50.918;7.092;2023-11-19T15:27:32;16.20;50.60
81842;DHT22;71284;50.918;7.092;2023-11-19T15:29:58;16.20;51.10
81842;DHT22;71284;50.918;7.092;2023-11-19T15:32:25;16.30;50.70
81842;DHT22;71284;50.918;7.092;2023-11-19T15:34:51;16.00;51.30
81842;DHT22;71284;50.918;7.092;2023-11-19T15:37:18;15.90;51.90